createdAt,value
2023-03-23T15:58:23.132Z,28.67
2023-03-23T16:00:57.104Z,30.08
2023-03-23T16:03:35.008Z,28.02
2023-03-23T16:06:10.446Z,30.27
2023-03-23T16:08:43.009Z,30.02
2023-03-23T16:11:28.415Z,29.30
2023-03-23T16:14:00.761Z,28.88
2023-03-23T16:16:37.168Z,24.83
2023-03-23T16:19:11.250Z,22.60
2023-03-23T16:21:43.302Z,23.40
2023-03-23T16:24:15.302Z,21.65
2023-03-23T16:26:47.387Z,21.48
2023-03-23T16:29:40.021Z,21.42
2023-03-23T16:32:12.896Z,20.95
2023-03-23T16:34:44.905Z,27.17
2023-03-23T16:37:17.134Z,20.40
2023-03-23T16:39:49.102Z,19.55
2023-03-23T16:42:21.058Z,17.48
2023-03-23T16:44:54.825Z,16.75
2023-03-23T16:47:28.230Z,16.52
2023-03-23T16:50:00.445Z,17.83
2023-03-23T16:52:32.604Z,13.40
2023-03-23T16:55:05.087Z,14.10
2023-03-23T16:57:38.293Z,12.18
2023-03-23T17:00:14.958Z,13.05
2023-03-23T17:02:51.750Z,14.15
2023-03-23T17:05:26.060Z,13.43
2023-03-23T17:07:58.046Z,11.05
2023-03-23T17:10:31.530Z,11.80
2023-03-23T17:13:03.524Z,12.35
2023-03-23T17:15:37.173Z,12.77
2023-03-23T17:18:11.156Z,11.10
2023-03-23T17:20:43.744Z,8.88
2023-03-23T17:23:17.191Z,9.73
2023-03-23T17:25:50.482Z,10.27
2023-03-23T17:28:22.594Z,10.07
2023-03-23T17:30:54.627Z,9.50
2023-03-23T17:33:28.038Z,10.48
2023-03-23T17:36:00.090Z,9.07
2023-03-23T17:38:32.034Z,8.65
2023-03-23T17:41:05.935Z,9.50
2023-03-23T17:43:42.596Z,9.85
2023-03-23T17:46:15.433Z,12.05
2023-03-23T17:48:48.859Z,8.65
2023-03-23T17:51:21.164Z,10.48
2023-03-23T17:53:53.093Z,7.10
2023-03-23T17:56:25.217Z,12.45
2023-03-23T17:58:57.285Z,11.20
2023-03-23T18:01:29.305Z,17.95
2023-03-23T18:04:04.503Z,8.63
2023-03-23T18:06:36.587Z,8.18
2023-03-23T18:09:08.610Z,7.80
2023-03-23T18:11:40.843Z,7.43
2023-03-23T18:14:13.695Z,6.75
2023-03-23T18:16:45.734Z,6.47
2023-03-23T18:19:19.384Z,5.47
2023-03-23T18:21:51.389Z,5.85
2023-03-23T18:24:24.056Z,6.10
2023-03-23T18:26:56.987Z,6.32
2023-03-23T18:29:29.045Z,6.97
2023-03-23T18:32:01.181Z,4.90
2023-03-23T18:34:35.175Z,5.82
2023-03-23T18:37:07.145Z,5.95
2023-03-23T18:39:39.297Z,5.93
2023-03-23T18:42:11.409Z,4.07
2023-03-23T18:44:43.634Z,6.15
2023-03-23T18:47:15.671Z,8.13
2023-03-23T18:49:53.775Z,6.60
2023-03-23T18:52:31.066Z,5.30
2023-03-23T18:55:03.601Z,8.32
2023-03-23T18:57:35.872Z,23.25
2023-03-23T19:00:10.087Z,26.95
2023-03-23T19:02:42.493Z,21.42
2023-03-23T19:05:16.256Z,23.20
2023-03-23T19:07:48.457Z,26.42
2023-03-23T19:10:21.383Z,8.80
2023-03-23T19:12:54.245Z,10.15
2023-03-23T19:15:26.328Z,5.65
2023-03-23T19:17:58.463Z,3.60
2023-03-23T19:21:06.438Z,3.50
2023-03-23T19:23:24.628Z,5.40
2023-03-23T19:25:57.205Z,7.05
2023-03-23T19:31:04.429Z,10.35
2023-03-23T19:33:36.982Z,5.40
2023-03-23T19:36:13.233Z,5.25
2023-03-23T19:38:47.611Z,6.93
2023-03-23T19:41:21.925Z,5.40
2023-03-23T19:43:54.798Z,7.50
2023-03-23T19:46:29.966Z,6.85
2023-03-23T19:49:03.638Z,10.20
2023-03-23T19:51:37.360Z,6.90
2023-03-23T19:54:09.487Z,6.65
2023-03-23T19:56:43.468Z,5.35
2023-03-23T19:59:16.655Z,5.68
2023-03-23T20:01:48.660Z,4.40
2023-03-23T20:04:21.564Z,6.75
2023-03-23T20:06:57.081Z,5.18
2023-03-23T20:09:30.681Z,4.88
2023-03-23T20:12:04.903Z,4.15
2023-03-23T20:14:38.251Z,3.80
2023-03-23T20:17:11.696Z,9.20
2023-03-23T20:19:44.567Z,5.15
2023-03-23T20:22:18.079Z,3.83
2023-03-23T20:24:50.077Z,3.75
2023-03-23T20:27:22.114Z,3.47
2023-03-23T20:29:55.366Z,4.90
2023-03-23T20:32:31.098Z,3.22
2023-03-23T20:35:06.507Z,2.50
2023-03-23T20:37:40.481Z,2.70
2023-03-23T20:40:15.058Z,3.67
2023-03-23T20:42:48.187Z,3.70
2023-03-23T20:45:20.956Z,2.90
2023-03-23T20:47:53.762Z,3.20
2023-03-23T20:50:25.780Z,3.47
2023-03-23T20:52:59.110Z,4.18
2023-03-23T20:55:31.128Z,4.40
2023-03-23T20:58:03.142Z,4.60
2023-03-23T21:00:35.362Z,7.72
2023-03-23T21:03:09.640Z,6.70
2023-03-23T21:05:42.689Z,6.35
2023-03-23T21:08:18.239Z,7.90
2023-03-23T21:10:50.820Z,7.15
2023-03-23T21:13:23.319Z,7.88
2023-03-23T21:15:55.450Z,8.90
2023-03-23T21:18:27.813Z,7.63
2023-03-23T21:21:00.521Z,7.22
2023-03-23T21:23:34.174Z,8.70
2023-03-23T21:26:08.277Z,9.35
2023-03-23T21:28:40.343Z,8.60
2023-03-23T21:31:12.997Z,8.90
2023-03-23T21:33:44.993Z,8.82
2023-03-23T21:36:17.022Z,10.30
2023-03-23T21:38:50.790Z,10.70
2023-03-23T21:41:23.043Z,14.02
2023-03-23T21:43:55.219Z,9.00
2023-03-23T21:46:27.706Z,10.70
2023-03-23T21:48:59.622Z,8.70
2023-03-23T21:51:32.036Z,10.10
2023-03-23T21:54:05.694Z,11.55
2023-03-23T21:56:38.147Z,13.88
2023-03-23T21:59:10.204Z,12.30
2023-03-23T22:01:42.306Z,12.23
2023-03-23T22:04:14.400Z,13.02
2023-03-23T22:06:47.909Z,12.13
2023-03-23T22:09:21.396Z,13.73
2023-03-23T22:11:53.516Z,13.60
2023-03-23T22:14:26.536Z,11.90
2023-03-23T22:16:58.705Z,10.63
2023-03-23T22:19:31.377Z,11.85
2023-03-23T22:22:06.543Z,12.93
2023-03-23T22:24:42.783Z,14.68
2023-03-23T22:27:14.883Z,11.10
2023-03-23T22:29:46.944Z,11.45
2023-03-23T22:32:19.260Z,8.55
2023-03-23T22:34:52.013Z,10.98
2023-03-23T22:37:24.079Z,11.75
2023-03-23T22:39:57.672Z,10.88
2023-03-23T22:42:29.851Z,9.93
2023-03-23T22:45:01.892Z,11.63
2023-03-23T22:47:34.457Z,12.90
2023-03-23T22:50:07.822Z,10.77
2023-03-23T22:52:39.897Z,13.27
2023-03-23T22:55:13.310Z,13.32
2023-03-23T22:57:46.080Z,8.85
2023-03-23T23:00:18.712Z,10.35
2023-03-23T23:02:50.941Z,10.93
2023-03-23T23:05:23.011Z,8.88
2023-03-23T23:07:55.072Z,7.68
2023-03-23T23:10:28.603Z,10.18
2023-03-23T23:13:00.640Z,8.82
2023-03-23T23:15:32.830Z,8.27
2023-03-23T23:18:06.499Z,10.45
2023-03-23T23:20:39.080Z,13.10
2023-03-23T23:23:11.455Z,12.65
2023-03-23T23:25:45.431Z,13.18
2023-03-23T23:28:18.217Z,8.00
2023-03-23T23:30:51.625Z,8.77
2023-03-23T23:33:23.905Z,11.30
2023-03-23T23:35:56.495Z,12.02
2023-03-23T23:38:28.591Z,11.38
2023-03-23T23:41:02.246Z,9.77
2023-03-23T23:43:34.533Z,11.60
2023-03-23T23:46:07.056Z,10.50
2023-03-23T23:48:39.264Z,10.50
2023-03-23T23:51:15.298Z,9.25
2023-03-23T23:53:53.235Z,9.05
2023-03-23T23:56:27.125Z,10.10
2023-03-23T23:58:59.490Z,8.25
